This is the latest recevied weather packets stored in our database for station/object OK1PMP-6. If no packets are shown the sender has not sent any weather packets the latest 10 day(s).
| Time | Temp. | Humidity | Pressure | Rain* | Wind** | Luminosity | Snow |
|---|---|---|---|---|---|---|---|
| 1777707020 | 13.89° C | 59% | 1028.9 hPa | 0 mm | - | 498 W/m² | - |
| 1777706117 | 13.33° C | 62% | 1028.6 hPa | 0 mm | - | 461 W/m² | - |
| 1777705217 | 12.22° C | 64% | 1028.8 hPa | 0 mm | - | 424 W/m² | - |
| 1777704335 | 11.11° C | 67% | 1029 hPa | 0 mm | - | 383 W/m² | - |
| 1777703409 | 10° C | 70% | 1028.9 hPa | 0 mm | - | 340 W/m² | - |
| 1777702515 | 8.89° C | 73% | 1029 hPa | 0 mm | - | 296 W/m² | - |
| 1777701602 | 7.78° C | 78% | 1029.1 hPa | 0 mm | - | 251 W/m² | - |
| 1777700697 | 6.67° C | 80% | 1029 hPa | 0 mm | - | 204 W/m² | - |
| 1777699792 | 5.56° C | 84% | 1028.9 hPa | 0 mm | - | 163 W/m² | - |
| 1777698892 | 4.44° C | 86% | 1029 hPa | 0 mm | - | 128 W/m² | - |
| 1777697989 | 2.78° C | 87% | 1028.9 hPa | 0 mm | - | 91 W/m² | - |
| 1777697088 | 2.22° C | 89% | 1028.8 hPa | 0 mm | - | 62 W/m² | - |
| 1777696173 | 1.67° C | 85% | 1028.7 hPa | 0 mm | - | 22 W/m² | - |
| 1777695319 | 1.11° C | 84% | 1028.9 hPa | 0 mm | - | 16 W/m² | - |
| 1777694370 | 1.11° C | 84% | 1028.8 hPa | 0 mm | - | 11 W/m² | - |
| 1777693477 | 1.11° C | 84% | 1028.6 hPa | 0 mm | - | 5 W/m² | - |
| 1777692567 | 1.67° C | 83% | 1028.6 hPa | 0 mm | - | 0 W/m² | - |
| 1777691667 | 1.67° C | 84% | 1028.7 hPa | 0 mm | - | 0 W/m² | - |
| 1777690766 | 1.67° C | 85% | 1028.8 hPa | 0 mm | - | 0 W/m² | - |
| 1777689865 | 1.67° C | 81% | 1028.6 hPa | 0 mm | - | 0 W/m² | - |
| 1777688960 | 1.67° C | 82% | 1028.7 hPa | 0 mm | - | 0 W/m² | - |
| 1777688058 | 2.22° C | 81% | 1028.7 hPa | 0 mm | - | 0 W/m² | - |
| 1777687155 | 2.22° C | 82% | 1028.8 hPa | 0 mm | - | 0 W/m² | - |
| 1777686255 | 2.78° C | 80% | 1028.7 hPa | 0 mm | - | 0 W/m² | - |
| 1777685356 | 2.78° C | 82% | 1028.8 hPa | 0 mm | - | 0 W/m² | - |
* Rain latest hour (hover to see other rain measurements)
** Current wind speed in m/s (hover to see current wind gust speed)